Piratuba, Brazil
Current Conditions -  °F | °C
As of 7:45 AM on Friday 31 Oct 2014 (Local Time) from SBCH Reporting Station
Light Fog Light Fog  
Wind Chill: 63°   Ceiling: 500
Heat Index: 63°   Visibility: 1.1mi
Dew Point: 61°   Wind: 7mph
Humidity: 94%   Direction: 50°NE
Pressure: 29.91"   Gusts: NA
Location:  27.42°S, 51.77°W
Report Text: SBCH 310945Z 05006KT 1800 BCFG SCT001 BKN005 17/16 Q1013
Loading
Personal Weather Stations






























Interactive Weather Map
Tropical Storm Tracking
New forecast layout! Learn more

10-Day Weather Forecast

Advertisements
Track Severe Weather on mobile